createdAt,value
2022-08-26T00:03:15.311Z,19.14
2022-08-26T00:08:35.887Z,19.10
2022-08-26T00:13:50.685Z,19.06
2022-08-26T00:19:24.642Z,19.02
2022-08-26T00:24:41.207Z,18.98
2022-08-26T00:30:15.157Z,18.92
2022-08-26T00:35:45.249Z,18.87
2022-08-26T00:41:09.709Z,18.82
2022-08-26T00:46:22.290Z,18.76
2022-08-26T00:51:34.365Z,18.70
2022-08-26T00:57:28.375Z,18.66
2022-08-26T01:03:45.822Z,18.60
2022-08-26T01:09:52.924Z,18.56
2022-08-26T01:16:00.267Z,18.54
2022-08-26T01:22:19.962Z,18.50
2022-08-26T01:27:51.994Z,18.47
2022-08-26T01:33:31.084Z,18.42
2022-08-26T01:38:47.567Z,18.37
2022-08-26T01:43:56.344Z,18.33
2022-08-26T01:50:06.540Z,18.29
2022-08-26T01:55:27.641Z,18.25
2022-08-26T02:00:45.758Z,18.21
2022-08-26T02:06:11.211Z,18.18
2022-08-26T02:12:05.454Z,18.12
2022-08-26T02:17:41.297Z,18.05
2022-08-26T02:22:47.985Z,18.00
2022-08-26T02:27:54.704Z,17.92
2022-08-26T02:33:17.315Z,17.86
2022-08-26T02:38:36.078Z,17.80
2022-08-26T02:44:07.345Z,17.75
2022-08-26T02:49:12.479Z,17.68
2022-08-26T02:54:24.141Z,17.64
2022-08-26T02:59:36.885Z,17.61
2022-08-26T03:04:41.819Z,17.57
2022-08-26T03:10:08.437Z,17.51
2022-08-26T03:15:38.740Z,17.46
2022-08-26T03:21:32.432Z,17.40
2022-08-26T03:27:07.244Z,17.35
2022-08-26T03:32:24.056Z,17.30
2022-08-26T03:37:42.966Z,17.26
2022-08-26T03:43:23.409Z,17.21
2022-08-26T03:48:39.912Z,17.17
2022-08-26T03:53:51.371Z,17.13
2022-08-26T03:59:09.447Z,17.11
2022-08-26T04:04:30.872Z,17.11
2022-08-26T04:09:48.878Z,17.13
2022-08-26T04:15:28.319Z,17.17
2022-08-26T04:20:39.572Z,17.20
2022-08-26T04:26:16.249Z,17.24
2022-08-26T04:31:55.361Z,17.33
2022-08-26T04:37:13.665Z,17.42
2022-08-26T04:42:25.867Z,17.50
2022-08-26T04:47:32.560Z,17.58
2022-08-26T04:53:46.267Z,17.68
2022-08-26T04:59:19.173Z,17.82
2022-08-26T05:05:11.304Z,17.95
2022-08-26T05:11:08.070Z,18.10
2022-08-26T05:16:47.745Z,18.24
2022-08-26T05:22:31.147Z,18.38
2022-08-26T05:27:53.782Z,18.51
2022-08-26T05:33:05.825Z,18.66
2022-08-26T05:38:20.205Z,18.79
2022-08-26T05:43:22.693Z,18.92
2022-08-26T05:48:53.428Z,19.06
2022-08-26T05:54:28.096Z,19.22
2022-08-26T05:59:53.386Z,19.42
2022-08-26T06:05:09.997Z,19.62
2022-08-26T06:10:41.559Z,19.79
2022-08-26T06:16:19.866Z,19.98
2022-08-26T06:21:54.895Z,20.15
2022-08-26T06:27:11.481Z,20.33
2022-08-26T06:32:17.500Z,20.47
2022-08-26T06:37:33.171Z,20.63
2022-08-26T06:42:40.284Z,20.79
2022-08-26T06:47:42.530Z,20.95
2022-08-26T06:52:54.937Z,21.09
2022-08-26T06:57:59.066Z,21.26
2022-08-26T07:03:17.605Z,21.41
2022-08-26T07:08:28.906Z,21.55
2022-08-26T07:13:38.286Z,21.75
2022-08-26T07:18:54.853Z,21.96
2022-08-26T07:24:05.999Z,22.21
2022-08-26T07:29:13.522Z,22.45
2022-08-26T07:34:18.872Z,22.63
2022-08-26T07:39:21.217Z,22.82
2022-08-26T07:44:27.257Z,23.05
2022-08-26T07:49:32.617Z,23.28
2022-08-26T07:54:38.067Z,23.49
2022-08-26T08:00:10.483Z,23.69
2022-08-26T08:05:50.493Z,23.89
2022-08-26T08:10:59.625Z,24.03
2022-08-26T08:16:05.842Z,24.25
2022-08-26T08:21:29.017Z,24.44
2022-08-26T08:26:38.124Z,24.58
2022-08-26T08:31:58.061Z,24.74
2022-08-26T08:37:08.712Z,24.94
2022-08-26T08:42:42.654Z,25.09
2022-08-26T08:47:59.072Z,25.24
2022-08-26T08:53:13.561Z,25.43
2022-08-26T08:58:21.508Z,25.64
2022-08-26T09:03:56.168Z,25.84
2022-08-26T09:09:10.652Z,26.10
2022-08-26T09:14:38.513Z,26.26
2022-08-26T09:19:49.828Z,26.43
2022-08-26T09:24:55.377Z,26.54
2022-08-26T09:29:59.874Z,26.62
2022-08-26T09:35:11.582Z,26.70
2022-08-26T09:40:23.014Z,26.85
2022-08-26T09:45:50.132Z,27.05
2022-08-26T09:51:02.629Z,27.28
2022-08-26T09:56:16.805Z,27.55
2022-08-26T10:01:25.799Z,27.76
2022-08-26T10:06:29.007Z,27.86
2022-08-26T10:11:42.057Z,28.01
2022-08-26T10:16:51.133Z,28.22
2022-08-26T10:21:54.152Z,28.31
2022-08-26T10:27:15.114Z,28.40
2022-08-26T10:32:31.864Z,28.57
2022-08-26T10:37:46.410Z,28.63
2022-08-26T10:43:07.192Z,28.75
2022-08-26T10:48:19.278Z,28.90
2022-08-26T10:53:51.780Z,29.06
2022-08-26T10:59:36.840Z,29.16
2022-08-26T11:05:08.714Z,29.37
2022-08-26T11:10:24.051Z,29.56
2022-08-26T11:15:38.614Z,29.71
2022-08-26T11:20:45.971Z,29.91
2022-08-26T11:26:01.342Z,29.98
2022-08-26T11:31:37.635Z,30.05
2022-08-26T11:36:54.610Z,30.24
2022-08-26T11:42:05.373Z,30.41
2022-08-26T11:47:15.777Z,30.46
2022-08-26T11:52:22.637Z,30.56
2022-08-26T11:57:26.525Z,30.66
2022-08-26T12:02:38.525Z,30.66
2022-08-26T12:07:42.679Z,30.69
2022-08-26T12:12:55.270Z,30.73
2022-08-26T12:18:00.491Z,30.84
2022-08-26T12:23:02.874Z,30.85
2022-08-26T12:28:08.769Z,30.83
2022-08-26T12:33:23.090Z,30.78
2022-08-26T12:38:34.974Z,30.89
2022-08-26T12:43:47.097Z,30.97
2022-08-26T12:48:50.063Z,30.97
2022-08-26T12:54:07.008Z,30.96
2022-08-26T12:59:36.367Z,30.88
2022-08-26T13:04:43.420Z,30.90
2022-08-26T13:10:01.374Z,30.86
2022-08-26T13:15:08.855Z,30.78
2022-08-26T13:20:20.654Z,30.79
2022-08-26T13:25:29.425Z,30.80
2022-08-26T13:31:13.597Z,30.81
2022-08-26T13:36:53.681Z,30.82
2022-08-26T13:42:12.990Z,30.84
2022-08-26T13:47:22.093Z,30.86
2022-08-26T13:52:48.699Z,30.93
2022-08-26T13:57:55.763Z,30.98
2022-08-26T14:02:59.156Z,31.01
2022-08-26T14:08:01.941Z,31.00
2022-08-26T14:13:05.169Z,30.97
2022-08-26T14:18:41.483Z,30.93
2022-08-26T14:23:44.903Z,30.97
2022-08-26T14:28:50.553Z,31.02
2022-08-26T14:33:56.930Z,31.08
2022-08-26T14:39:22.706Z,31.02
2022-08-26T14:44:58.209Z,30.97
2022-08-26T14:50:04.194Z,30.95
2022-08-26T14:55:07.029Z,30.91
2022-08-26T15:00:12.580Z,30.89
2022-08-26T15:05:15.237Z,30.91
2022-08-26T15:10:18.358Z,30.87
2022-08-26T15:15:24.561Z,30.85
2022-08-26T15:20:43.759Z,30.83
2022-08-26T15:26:23.649Z,30.75
2022-08-26T15:31:42.160Z,30.69
2022-08-26T15:36:47.500Z,30.64
2022-08-26T15:41:49.983Z,30.54
2022-08-26T15:46:58.276Z,30.47
2022-08-26T15:52:05.464Z,30.35
2022-08-26T15:57:12.355Z,30.24
2022-08-26T16:02:32.308Z,30.15
2022-08-26T16:07:46.873Z,30.01
2022-08-26T16:13:39.933Z,29.76
2022-08-26T16:18:43.555Z,29.56
2022-08-26T16:23:46.975Z,29.40
2022-08-26T16:28:56.019Z,29.19
2022-08-26T16:34:17.854Z,29.00
2022-08-26T16:39:20.511Z,28.77
2022-08-26T16:44:23.768Z,28.50
2022-08-26T16:49:30.658Z,28.22
2022-08-26T16:54:50.690Z,27.95
2022-08-26T17:00:06.052Z,27.70
2022-08-26T17:05:18.811Z,27.51
2022-08-26T17:10:33.089Z,27.31
2022-08-26T17:16:08.741Z,27.10
2022-08-26T17:21:20.771Z,26.88
2022-08-26T17:26:37.970Z,26.62
2022-08-26T17:31:54.557Z,26.31
2022-08-26T17:37:00.553Z,26.02
2022-08-26T17:42:06.429Z,25.72
2022-08-26T17:47:12.972Z,25.44
2022-08-26T17:52:37.808Z,25.17
2022-08-26T17:58:01.025Z,24.90
2022-08-26T18:03:09.130Z,24.68
2022-08-26T18:08:15.267Z,24.50
2022-08-26T18:13:27.025Z,24.31
2022-08-26T18:18:33.025Z,24.13
2022-08-26T18:23:36.734Z,23.94
2022-08-26T18:28:42.232Z,23.78
2022-08-26T18:34:00.787Z,23.61
2022-08-26T18:39:05.117Z,23.47
2022-08-26T18:44:13.664Z,23.30
2022-08-26T18:49:18.250Z,23.13
2022-08-26T18:54:23.510Z,22.97
2022-08-26T18:59:39.844Z,22.81
2022-08-26T19:04:52.867Z,22.63
2022-08-26T19:10:12.466Z,22.48
2022-08-26T19:15:23.974Z,22.31
2022-08-26T19:20:26.402Z,22.16
2022-08-26T19:25:47.109Z,22.02
2022-08-26T19:30:53.383Z,21.90
2022-08-26T19:35:59.597Z,21.77
2022-08-26T19:41:17.597Z,21.67
2022-08-26T19:47:18.761Z,21.62
2022-08-26T19:52:29.834Z,21.62
2022-08-26T19:57:37.023Z,21.63
2022-08-26T20:03:15.593Z,21.63
2022-08-26T20:08:22.364Z,21.62
2022-08-26T20:13:30.732Z,21.61
2022-08-26T20:19:01.791Z,21.58
2022-08-26T20:24:27.345Z,21.57
2022-08-26T20:29:40.901Z,21.54
2022-08-26T20:34:43.165Z,21.53
2022-08-26T20:39:47.497Z,21.55
2022-08-26T20:44:54.714Z,21.50
2022-08-26T20:49:57.624Z,21.45
2022-08-26T20:55:09.604Z,21.36
2022-08-26T21:00:15.931Z,21.27
2022-08-26T21:05:30.011Z,21.16
2022-08-26T21:10:47.548Z,21.03
2022-08-26T21:16:41.925Z,20.91
2022-08-26T21:22:36.891Z,20.80
2022-08-26T21:28:40.775Z,20.66
2022-08-26T21:34:41.558Z,20.54
2022-08-26T21:39:53.506Z,20.44
2022-08-26T21:45:11.636Z,20.36
2022-08-26T21:50:43.580Z,20.31
2022-08-26T21:56:18.130Z,20.26
2022-08-26T22:01:27.445Z,20.18
2022-08-26T22:07:09.558Z,20.08
2022-08-26T22:12:34.427Z,19.98
2022-08-26T22:17:52.221Z,19.89
2022-08-26T22:23:07.099Z,19.77
2022-08-26T22:28:24.821Z,19.67
2022-08-26T22:33:36.181Z,19.58
2022-08-26T22:39:04.178Z,19.52
2022-08-26T22:44:09.155Z,19.45
2022-08-26T22:49:23.214Z,19.37
2022-08-26T22:54:50.950Z,19.26
2022-08-26T23:00:04.752Z,19.18
2022-08-26T23:06:09.929Z,19.13
2022-08-26T23:12:03.623Z,19.05
2022-08-26T23:17:22.127Z,18.96
2022-08-26T23:22:41.028Z,18.89
2022-08-26T23:28:01.988Z,18.84
2022-08-26T23:33:27.670Z,18.78
2022-08-26T23:39:06.417Z,18.73
2022-08-26T23:45:18.983Z,18.67
2022-08-26T23:51:20.830Z,18.60
2022-08-26T23:56:59.165Z,18.59
